Time;durP1;ratioP1;P1;durP2;ratioP2;P2;SDS_P1;SDS_P2;PMS_P1;PMS_P2;Temp;Humidity;BMP_temperature;BMP_pressure;BME280_temperature;BME280_humidity;BME280_pressure;Samples;Min_cycle;Max_cycle;Signal;HPM_P1;HPM_P2
2021/07/31 00:00:01;;;;;;;5.40;4.90;;;;;;;19.38;88.11;97405.72;5058496;28;20208;-70
2021/07/31 00:02:29;;;;;;;5.07;4.77;;;;;;;19.47;87.68;97408.88;5054651;28;20571;-71
2021/07/31 00:04:57;;;;;;;6.33;5.40;;;;;;;19.48;87.71;97409.66;5045436;28;20710;-68
2021/07/31 00:07:25;;;;;;;6.13;5.57;;;;;;;19.43;87.99;97407.69;5053090;28;20226;-70
2021/07/31 00:09:54;;;;;;;5.70;5.30;;;;;;;19.29;88.91;97411.66;5054410;28;20227;-70
2021/07/31 00:12:22;;;;;;;5.80;5.23;;;;;;;19.38;88.64;97415.66;5057292;28;20571;-71
2021/07/31 00:14:50;;;;;;;5.93;5.53;;;;;;;19.39;88.47;97406.53;5050070;28;20454;-71
2021/07/31 00:17:18;;;;;;;5.90;5.33;;;;;;;19.41;88.72;97420.56;5052923;28;20239;-71
2021/07/31 00:19:46;;;;;;;6.23;5.83;;;;;;;19.38;89.17;97416.47;5055852;28;20206;-70
2021/07/31 00:22:13;;;;;;;6.27;5.80;;;;;;;19.40;89.36;97407.34;5057519;28;20579;-70
2021/07/31 00:24:41;;;;;;;6.30;5.80;;;;;;;19.49;88.88;97413.97;5056062;28;20207;-70
2021/07/31 00:27:11;;;;;;;6.67;5.83;;;;;;;19.41;89.00;97407.13;5054032;28;20227;-71
2021/07/31 00:29:39;;;;;;;6.60;5.93;;;;;;;19.45;89.12;97405.59;5052599;28;20445;-69
2021/07/31 00:32:08;;;;;;;5.73;5.33;;;;;;;19.37;89.26;97414.81;5054967;28;20206;-70
2021/07/31 00:34:36;;;;;;;6.90;6.23;;;;;;;19.42;89.04;97416.81;5057725;28;21573;-70
2021/07/31 00:37:04;;;;;;;5.87;5.47;;;;;;;19.41;89.35;97414.34;5056168;28;20317;-70
2021/07/31 00:39:38;;;;;;;6.30;5.90;;;;;;;19.44;87.93;97420.09;5059507;28;20636;-70
2021/07/31 00:42:06;;;;;;;6.80;6.00;;;;;;;19.48;86.84;97428.47;5054785;28;20214;-68
2021/07/31 00:44:36;;;;;;;6.30;5.77;;;;;;;19.47;85.75;97416.09;5058417;28;20207;-69
2021/07/31 00:47:04;;;;;;;6.93;6.07;;;;;;;19.47;85.37;97422.31;5052800;28;20602;-70
2021/07/31 00:49:33;;;;;;;6.23;5.73;;;;;;;19.51;85.51;97433.41;5057912;28;20231;-71
2021/07/31 00:52:01;;;;;;;5.73;5.33;;;;;;;19.48;84.94;97431.16;5053353;28;20559;-70
2021/07/31 00:54:30;;;;;;;6.53;5.87;;;;;;;19.47;84.37;97427.66;5054213;28;20581;-71
2021/07/31 00:56:58;;;;;;;6.07;5.67;;;;;;;19.55;83.61;97422.97;5059844;28;20246;-71
2021/07/31 00:59:26;;;;;;;5.83;5.43;;;;;;;19.57;83.01;97429.78;5060614;28;20641;-69
2021/07/31 01:01:56;;;;;;;5.70;5.40;;;;;;;19.48;82.79;97444.59;5054854;28;20229;-70
2021/07/31 01:04:24;;;;;;;7.80;5.30;;;;;;;19.48;82.58;97445.44;5055521;28;20306;-70
2021/07/31 01:06:52;;;;;;;6.10;5.50;;;;;;;19.46;81.04;97439.47;5061310;28;20226;-71
2021/07/31 01:09:20;;;;;;;6.43;5.73;;;;;;;19.50;79.88;97454.06;5055279;28;20227;-69
2021/07/31 01:11:48;;;;;;;5.60;5.13;;;;;;;19.53;79.08;97436.66;5054625;28;20230;-70
2021/07/31 01:14:16;;;;;;;4.97;4.50;;;;;;;19.49;79.47;97439.00;5056731;28;20214;-70
2021/07/31 01:16:45;;;;;;;4.83;4.53;;;;;;;19.55;78.23;97439.94;5055722;28;20364;-70
2021/07/31 01:19:14;;;;;;;5.20;4.80;;;;;;;19.50;78.19;97437.94;5053803;28;20227;-68
2021/07/31 01:21:45;;;;;;;5.10;4.63;;;;;;;19.49;76.69;97448.91;5053410;28;20209;-70
2021/07/31 01:24:15;;;;;;;4.50;4.10;;;;;;;19.49;76.10;97441.69;5056035;28;20214;-70
2021/07/31 01:26:44;;;;;;;4.63;4.23;;;;;;;19.38;75.61;97447.91;5069877;28;20226;-71
2021/07/31 01:29:14;;;;;;;4.37;4.13;;;;;;;19.37;75.50;97448.94;5057975;28;20321;-69
2021/07/31 01:31:43;;;;;;;5.17;4.13;;;;;;;19.34;74.51;97454.78;5061301;28;20207;-70
2021/07/31 01:34:11;;;;;;;5.07;4.40;;;;;;;19.29;75.01;97455.47;5061541;28;20751;-71
2021/07/31 01:36:39;;;;;;;4.43;4.03;;;;;;;19.29;74.45;97455.47;5064159;28;20598;-69
2021/07/31 01:39:08;;;;;;;5.07;4.63;;;;;;;19.24;74.58;97464.22;5056199;28;20290;-69
2021/07/31 01:41:36;;;;;;;4.00;3.70;;;;;;;19.23;74.40;97456.41;5064284;28;20222;-69
2021/07/31 01:44:05;;;;;;;4.33;4.03;;;;;;;19.14;74.48;97455.13;5057500;28;20209;-71
2021/07/31 01:46:33;;;;;;;4.57;4.27;;;;;;;19.07;74.92;97450.66;5059871;28;20226;-69
2021/07/31 01:49:01;;;;;;;4.70;4.40;;;;;;;19.04;74.24;97439.59;5055558;28;20203;-69
2021/07/31 01:51:29;;;;;;;4.13;3.83;;;;;;;18.99;74.45;97442.97;5055559;28;20724;-69
2021/07/31 01:53:58;;;;;;;4.50;4.10;;;;;;;18.91;74.38;97446.78;5061613;28;20297;-69
2021/07/31 01:56:28;;;;;;;4.97;4.47;;;;;;;18.89;74.44;97453.44;5062087;28;20259;-69
2021/07/31 01:58:57;;;;;;;4.27;4.07;;;;;;;18.79;74.80;97452.16;5064205;28;20201;-71
2021/07/31 02:01:25;;;;;;;5.30;4.27;;;;;;;18.69;75.24;97451.88;5056849;28;20206;-69
2021/07/31 02:03:53;;;;;;;4.23;3.83;;;;;;;18.65;75.71;97451.53;5056957;28;20554;-69
2021/07/31 02:06:21;;;;;;;3.93;3.73;;;;;;;18.52;75.53;97460.59;5057636;28;20218;-71
2021/07/31 02:08:49;;;;;;;3.97;3.67;;;;;;;18.45;75.63;97465.22;5061775;28;20210;-70
2021/07/31 02:11:17;;;;;;;4.10;3.80;;;;;;;18.34;76.07;97465.97;5062605;28;20222;-69
2021/07/31 02:13:47;;;;;;;4.43;4.03;;;;;;;18.26;76.17;97456.41;5053958;28;20218;-70
2021/07/31 02:16:22;;;;;;;4.90;4.50;;;;;;;18.22;76.73;97466.75;5056273;28;20933;-71
2021/07/31 02:18:50;;;;;;;3.93;3.73;;;;;;;18.11;77.42;97459.50;5059297;28;20331;-69
2021/07/31 02:21:19;;;;;;;4.10;3.83;;;;;;;17.99;77.64;97461.25;5060933;28;20210;-71
2021/07/31 02:23:47;;;;;;;3.80;3.50;;;;;;;17.98;78.07;97456.91;5062078;28;20658;-69
2021/07/31 02:26:15;;;;;;;4.20;3.80;;;;;;;17.86;79.02;97457.69;5059827;28;20764;-70
2021/07/31 02:28:43;;;;;;;4.50;3.80;;;;;;;17.78;79.93;97460.66;5058978;28;20203;-69
2021/07/31 02:31:12;;;;;;;3.80;3.60;;;;;;;17.60;80.64;97462.28;5061430;28;20448;-69
2021/07/31 02:33:41;;;;;;;3.73;3.23;;;;;;;17.58;80.80;97466.25;5060171;28;20386;-71
2021/07/31 02:36:09;;;;;;;4.10;3.80;;;;;;;17.42;82.19;97463.09;5057459;28;20203;-71
2021/07/31 02:38:38;;;;;;;3.67;3.47;;;;;;;17.35;82.22;97457.81;5061634;28;20210;-70
2021/07/31 02:41:06;;;;;;;4.30;4.00;;;;;;;17.31;82.60;97461.16;5060941;28;20572;-71
2021/07/31 02:43:34;;;;;;;4.23;3.93;;;;;;;17.34;82.57;97453.50;5056611;28;20215;-70
2021/07/31 02:46:05;;;;;;;3.47;3.20;;;;;;;17.21;82.94;97450.94;5060642;28;20206;-69
2021/07/31 02:48:35;;;;;;;6.20;4.23;;;;;;;17.19;82.71;97455.69;5057957;28;20215;-70
2021/07/31 02:51:05;;;;;;;3.43;3.23;;;;;;;17.17;82.57;97465.81;5058626;28;20219;-70
2021/07/31 02:53:33;;;;;;;4.00;3.80;;;;;;;17.09;83.17;97453.53;5063656;28;20228;-69
2021/07/31 02:56:01;;;;;;;3.77;3.47;;;;;;;17.04;83.65;97456.03;5058538;28;20895;-71
2021/07/31 02:58:29;;;;;;;5.10;3.70;;;;;;;16.99;83.03;97453.19;5059562;28;20582;-70
2021/07/31 03:00:57;;;;;;;3.60;3.30;;;;;;;16.97;83.79;97453.38;5055808;28;20203;-71
2021/07/31 03:03:25;;;;;;;3.63;3.43;;;;;;;16.84;84.47;97457.00;5061167;28;20211;-71
2021/07/31 03:05:56;;;;;;;4.13;3.33;;;;;;;16.79;85.52;97456.81;5059428;28;20210;-70
2021/07/31 03:08:23;;;;;;;4.10;3.80;;;;;;;16.63;86.29;97461.66;5057679;28;20580;-69
2021/07/31 03:10:56;;;;;;;3.70;3.50;;;;;;;16.55;87.59;97466.47;5060474;28;20223;-71
2021/07/31 03:13:24;;;;;;;3.50;3.30;;;;;;;16.51;87.54;97462.56;5055760;28;20573;-70
2021/07/31 03:15:53;;;;;;;3.33;3.03;;;;;;;16.39;88.16;97465.91;5060758;28;20733;-69
2021/07/31 03:18:21;;;;;;;5.03;4.07;;;;;;;16.35;88.35;97462.03;5055463;28;20203;-70
2021/07/31 03:20:50;;;;;;;3.73;3.43;;;;;;;16.28;88.68;97467.41;5057492;28;20207;-69
2021/07/31 03:23:21;;;;;;;3.97;3.60;;;;;;;16.26;88.58;97469.47;5055954;28;20753;-70
2021/07/31 03:25:49;;;;;;;5.23;3.70;;;;;;;16.30;88.17;97469.88;5058577;28;20746;-70
2021/07/31 03:28:17;;;;;;;3.60;3.30;;;;;;;16.27;88.26;97479.13;5062291;28;20228;-71
2021/07/31 03:30:47;;;;;;;4.83;2.93;;;;;;;16.30;88.09;97472.56;5060265;28;20256;-70
2021/07/31 03:33:14;;;;;;;3.50;3.30;;;;;;;16.32;87.71;97476.66;5057473;28;20210;-69
2021/07/31 03:35:43;;;;;;;4.07;3.70;;;;;;;16.23;88.12;97475.25;5055279;28;20211;-68
2021/07/31 03:38:12;;;;;;;3.70;3.40;;;;;;;16.16;88.71;97475.31;5059890;28;20230;-72
2021/07/31 03:40:41;;;;;;;3.73;3.50;;;;;;;16.11;89.33;97488.50;5057014;28;20535;-69
2021/07/31 03:43:09;;;;;;;4.33;3.93;;;;;;;16.03;90.18;97480.69;5058566;28;20206;-70
2021/07/31 03:45:38;;;;;;;3.37;3.00;;;;;;;15.94;90.85;97485.47;5059625;28;20222;-70
2021/07/31 03:48:06;;;;;;;3.20;2.90;;;;;;;15.90;90.99;97478.88;5063094;28;21206;-70
2021/07/31 03:50:34;;;;;;;3.57;3.37;;;;;;;15.86;91.43;97483.81;5057018;28;20679;-70
2021/07/31 03:53:04;;;;;;;5.40;3.40;;;;;;;15.78;92.53;97484.03;5059723;28;20222;-70
2021/07/31 03:55:32;;;;;;;4.20;3.60;;;;;;;15.76;92.64;97486.91;5056882;28;20203;-71
2021/07/31 03:58:02;;;;;;;3.77;3.47;;;;;;;15.70;93.31;97493.09;5052093;28;20226;-70
2021/07/31 04:00:29;;;;;;;3.80;3.50;;;;;;;15.69;93.83;97493.28;5044853;28;20326;-68
2021/07/31 04:02:58;;;;;;;4.30;3.70;;;;;;;15.65;93.82;97482.22;5056603;28;20881;-69
2021/07/31 04:05:26;;;;;;;3.80;3.60;;;;;;;15.73;92.36;97484.66;5052273;28;20203;-71
2021/07/31 04:07:54;;;;;;;3.97;3.30;;;;;;;15.72;92.13;97483.03;5053036;28;20215;-70
2021/07/31 04:10:22;;;;;;;5.13;3.43;;;;;;;15.74;91.56;97486.31;5054776;28;20282;-71
2021/07/31 04:12:50;;;;;;;4.03;3.63;;;;;;;15.72;91.60;97482.19;5058801;28;20472;-69
2021/07/31 04:15:19;;;;;;;3.63;3.33;;;;;;;15.71;91.26;97477.88;5046547;28;20218;-68
2021/07/31 04:17:47;;;;;;;5.33;3.90;;;;;;;15.73;90.73;97484.66;5048011;28;20709;-70
2021/07/31 04:20:15;;;;;;;4.23;3.17;;;;;;;15.71;90.38;97488.56;5048984;28;20199;-69
2021/07/31 04:22:43;;;;;;;3.73;3.50;;;;;;;15.68;90.48;97479.13;5045918;28;20204;-70
2021/07/31 04:25:11;;;;;;;3.83;3.53;;;;;;;15.63;90.94;97487.75;5056488;28;20202;-69
2021/07/31 04:27:39;;;;;;;4.07;3.07;;;;;;;15.69;91.03;97494.13;5052379;28;20326;-70
2021/07/31 04:30:08;;;;;;;3.33;3.03;;;;;;;15.70;90.90;97497.59;5055081;28;20206;-70
2021/07/31 04:32:37;;;;;;;3.77;3.17;;;;;;;15.60;91.26;97498.88;5055672;28;21143;-67
2021/07/31 04:35:06;;;;;;;3.17;2.97;;;;;;;15.70;91.01;97501.13;5055302;28;20203;-70
2021/07/31 04:37:34;;;;;;;5.47;3.43;;;;;;;15.76;90.84;97504.81;5054926;28;20427;-69
2021/07/31 04:40:02;;;;;;;4.47;3.53;;;;;;;15.73;90.73;97502.56;5058062;28;20203;-71
2021/07/31 04:42:30;;;;;;;3.43;3.23;;;;;;;15.71;91.75;97507.25;5052681;28;20207;-69
2021/07/31 04:44:58;;;;;;;3.70;3.40;;;;;;;15.81;91.60;97513.00;5052369;28;20219;-69
2021/07/31 04:47:26;;;;;;;3.20;3.00;;;;;;;15.82;91.79;97519.16;5060637;28;20235;-70
2021/07/31 04:49:55;;;;;;;3.60;3.30;;;;;;;15.85;91.67;97516.91;5054565;28;20206;-70
2021/07/31 04:52:23;;;;;;;3.30;3.00;;;;;;;15.89;90.78;97520.81;5055362;28;20647;-70
2021/07/31 04:54:51;;;;;;;3.77;3.40;;;;;;;15.93;90.03;97517.72;5054807;28;20220;-70
2021/07/31 04:57:19;;;;;;;3.70;3.40;;;;;;;15.93;89.99;97523.06;5049956;28;20227;-71
2021/07/31 04:59:47;;;;;;;4.77;3.40;;;;;;;15.95;90.29;97515.66;5059502;28;20238;-71
2021/07/31 05:02:14;;;;;;;3.43;3.23;;;;;;;16.03;89.52;97515.44;5054090;28;20214;-71
2021/07/31 05:04:43;;;;;;;3.10;2.90;;;;;;;16.05;89.17;97513.38;5063737;28;20310;-69
2021/07/31 05:07:12;;;;;;;3.67;3.33;;;;;;;16.12;88.96;97508.84;5069853;28;20230;-71
2021/07/31 05:09:40;;;;;;;3.97;3.67;;;;;;;16.14;88.54;97509.44;5057672;28;20706;-71
2021/07/31 05:12:08;;;;;;;3.23;3.07;;;;;;;16.22;88.05;97511.03;5055977;28;20365;-70
2021/07/31 05:14:36;;;;;;;3.60;3.30;;;;;;;16.34;87.09;97501.34;5061314;28;20548;-70
2021/07/31 05:17:04;;;;;;;3.40;3.10;;;;;;;16.41;86.37;97511.97;5052161;28;20590;-70
2021/07/31 05:19:33;;;;;;;3.87;3.57;;;;;;;16.48;nan;97512.78;5057744;28;20227;-70
2021/07/31 05:22:01;;;;;;;3.40;2.83;;;;;;;16.56;84.61;97502.88;5060760;28;20268;-72
2021/07/31 05:24:30;;;;;;;3.40;3.10;;;;;;;16.69;83.80;97507.31;5059031;28;20214;-70
2021/07/31 05:26:58;;;;;;;4.57;2.90;;;;;;;16.71;82.20;97507.94;5057003;28;20669;-70
2021/07/31 05:29:26;;;;;;;3.77;3.10;;;;;;;16.82;81.52;97519.78;5056511;28;20712;-69
2021/07/31 05:31:54;;;;;;;3.37;2.50;;;;;;;16.89;79.70;97517.91;5055381;28;20227;-70
2021/07/31 05:34:22;;;;;;;4.43;3.00;;;;;;;17.01;78.43;97518.84;5055890;28;20453;-69
2021/07/31 05:36:49;;;;;;;5.20;2.83;;;;;;;17.05;78.43;97512.03;5052327;28;20218;-68
2021/07/31 05:39:17;;;;;;;3.53;2.77;;;;;;;17.16;78.51;97520.38;5056343;28;20309;-68
2021/07/31 05:41:47;;;;;;;3.60;2.90;;;;;;;17.22;77.66;97524.88;5056550;28;20199;-67
2021/07/31 05:44:15;;;;;;;11.37;3.13;;;;;;;17.21;76.39;97526.72;5048272;28;20256;-68
2021/07/31 05:46:43;;;;;;;5.97;2.60;;;;;;;17.38;75.00;97522.69;5056123;28;20264;-68
2021/07/31 05:49:11;;;;;;;2.73;2.40;;;;;;;17.44;73.44;97524.50;5055479;28;20628;-67
2021/07/31 05:51:39;;;;;;;3.10;2.50;;;;;;;17.43;72.86;97520.16;5058738;28;20215;-67
2021/07/31 05:54:07;;;;;;;2.40;2.20;;;;;;;17.50;72.77;97531.63;5053607;28;20207;-69
2021/07/31 05:56:35;;;;;;;3.57;2.30;;;;;;;17.73;71.37;97522.97;5055549;28;20773;-68
2021/07/31 05:59:04;;;;;;;4.30;2.20;;;;;;;17.70;69.19;97523.41;5057888;28;20207;-68
2021/07/31 06:01:35;;;;;;;3.67;2.17;;;;;;;17.62;67.67;97537.94;5056485;28;20539;-68
2021/07/31 06:04:04;;;;;;;2.40;2.17;;;;;;;17.74;68.44;97529.16;5063483;28;20530;-67
2021/07/31 06:06:32;;;;;;;2.70;2.33;;;;;;;17.75;67.83;97536.16;5057168;28;20230;-71
2021/07/31 06:09:00;;;;;;;3.63;1.87;;;;;;;17.82;66.78;97536.91;5048837;28;20212;-71
2021/07/31 06:11:28;;;;;;;5.30;2.60;;;;;;;17.86;64.78;97537.28;5051468;28;20215;-72
2021/07/31 06:13:56;;;;;;;4.17;2.23;;;;;;;17.93;64.94;97538.03;5051674;28;20254;-71
2021/07/31 06:16:27;;;;;;;4.80;1.90;;;;;;;17.95;65.64;97533.25;5058069;28;20544;-72
2021/07/31 06:18:55;;;;;;;3.13;2.07;;;;;;;18.11;63.86;97533.72;5055591;28;20204;-71
2021/07/31 06:21:23;;;;;;;2.27;2.13;;;;;;;18.09;63.07;97533.97;5057926;28;20214;-71
2021/07/31 06:23:51;;;;;;;3.67;1.90;;;;;;;18.12;62.11;97530.84;5051810;28;20857;-72
2021/07/31 06:26:19;;;;;;;3.37;2.63;;;;;;;18.16;62.21;97536.56;5057589;28;20732;-71
2021/07/31 06:28:47;;;;;;;2.63;2.13;;;;;;;18.18;61.70;97542.50;5053595;28;20599;-70
2021/07/31 06:31:15;;;;;;;4.00;2.10;;;;;;;18.35;59.98;97548.09;5058169;28;20202;-72
2021/07/31 06:33:44;;;;;;;7.00;2.50;;;;;;;18.40;59.57;97542.88;5056482;28;20226;-69
2021/07/31 06:36:12;;;;;;;4.17;1.93;;;;;;;18.36;60.18;97557.78;5054052;28;20203;-72
2021/07/31 06:38:40;;;;;;;2.60;1.90;;;;;;;18.34;59.22;97554.50;5063603;28;20215;-70
2021/07/31 06:41:08;;;;;;;3.97;2.10;;;;;;;18.40;58.85;97547.41;5058440;28;20644;-71
2021/07/31 06:43:36;;;;;;;2.80;1.80;;;;;;;18.32;58.29;97552.06;5057717;28;20214;-70
2021/07/31 06:46:11;;;;;;;2.43;1.90;;;;;;;18.54;57.96;97554.25;5057975;28;20891;-70
2021/07/31 06:48:40;;;;;;;3.30;1.60;;;;;;;18.55;57.14;97550.50;5055633;28;20214;-71
2021/07/31 06:51:10;;;;;;;3.03;1.50;;;;;;;18.33;57.11;97553.69;5051056;28;20204;-72
2021/07/31 06:53:38;;;;;;;3.90;1.80;;;;;;;18.48;58.02;97555.16;5059583;28;20249;-70
2021/07/31 06:56:06;;;;;;;4.50;2.30;;;;;;;18.57;56.97;97555.66;5053776;28;20560;-72
2021/07/31 06:58:34;;;;;;;3.10;1.83;;;;;;;18.44;56.58;97560.16;5058315;28;20302;-70
2021/07/31 07:01:02;;;;;;;2.43;1.67;;;;;;;18.46;56.99;97554.56;5054126;28;20333;-72
2021/07/31 07:03:30;;;;;;;5.70;1.73;;;;;;;18.50;57.05;97545.84;5056309;28;20209;-72
2021/07/31 07:05:58;;;;;;;4.53;2.00;;;;;;;18.62;55.72;97556.63;5057092;28;20230;-70
2021/07/31 07:08:28;;;;;;;2.23;2.00;;;;;;;18.75;55.64;97550.28;5059288;28;20245;-71
2021/07/31 07:10:56;;;;;;;2.00;1.77;;;;;;;18.93;55.41;97546.69;5055581;28;20344;-71
2021/07/31 07:13:38;;;;;;;2.20;1.93;;;;;;;19.08;55.90;97543.59;5051104;28;20313;-73
2021/07/31 07:16:07;;;;;;;4.17;1.80;;;;;;;19.16;54.68;97550.53;5061804;28;20293;-72
2021/07/31 07:18:35;;;;;;;4.30;1.67;;;;;;;19.03;54.25;97527.38;5058347;28;20211;-72
2021/07/31 07:21:04;;;;;;;2.80;1.97;;;;;;;19.15;53.75;97530.09;5055572;28;20226;-70
2021/07/31 07:23:33;;;;;;;4.47;2.23;;;;;;;19.01;53.57;97526.78;5052988;28;20213;-72
2021/07/31 07:26:01;;;;;;;2.87;1.70;;;;;;;18.97;54.04;97524.78;5056852;28;20207;-72
2021/07/31 07:28:29;;;;;;;2.13;1.93;;;;;;;19.09;53.62;97528.31;5056435;28;20214;-71
2021/07/31 07:31:02;;;;;;;5.93;1.90;;;;;;;19.16;54.30;97529.03;5056767;28;20935;-72
2021/07/31 07:33:31;;;;;;;1.50;1.40;;;;;;;19.20;54.10;97532.91;5054544;28;20250;-71
2021/07/31 07:35:59;;;;;;;2.73;1.97;;;;;;;19.06;53.32;97526.91;5057622;28;20199;-71
2021/07/31 07:38:28;;;;;;;1.93;1.67;;;;;;;19.17;54.61;97524.50;5055499;28;20203;-71
2021/07/31 07:40:57;;;;;;;3.20;1.93;;;;;;;19.41;54.13;97528.03;5053209;28;20211;-71
2021/07/31 07:43:25;;;;;;;3.80;1.77;;;;;;;19.55;53.93;97528.63;5056658;28;20207;-70
2021/07/31 07:45:53;;;;;;;4.43;2.03;;;;;;;19.77;52.95;97528.84;5056947;28;20207;-71
2021/07/31 07:48:21;;;;;;;5.13;2.10;;;;;;;19.74;53.30;97528.47;5052768;28;20667;-70
2021/07/31 07:50:49;;;;;;;1.80;1.70;;;;;;;19.80;52.92;97524.84;5056846;28;20621;-71
2021/07/31 07:53:17;;;;;;;2.30;1.97;;;;;;;19.70;52.34;97521.94;5057871;28;20268;-71
2021/07/31 07:55:45;;;;;;;2.47;1.57;;;;;;;19.74;52.41;97528.47;5047756;28;20211;-70
2021/07/31 07:58:14;;;;;;;3.80;2.37;;;;;;;19.95;52.97;97525.22;5059431;28;20734;-71
2021/07/31 08:00:43;;;;;;;2.07;1.83;;;;;;;20.15;53.06;97525.91;5050803;28;20241;-72
2021/07/31 08:03:12;;;;;;;2.63;1.93;;;;;;;19.91;51.54;97526.75;5052327;28;20281;-72
2021/07/31 08:05:40;;;;;;;4.87;2.00;;;;;;;20.05;52.24;97527.28;5057913;28;20207;-71
2021/07/31 08:08:08;;;;;;;4.97;1.90;;;;;;;19.88;51.43;97526.38;5058082;28;20229;-71
2021/07/31 08:10:37;;;;;;;3.53;2.37;;;;;;;19.74;51.43;97529.31;5057137;28;20576;-71
2021/07/31 08:13:08;;;;;;;8.07;2.00;;;;;;;19.63;51.63;97530.94;5056428;28;20222;-72
2021/07/31 08:15:37;;;;;;;2.77;1.63;;;;;;;19.63;52.11;97530.94;5053556;28;20479;-72
2021/07/31 08:18:05;;;;;;;3.50;2.10;;;;;;;19.60;52.57;97523.34;5055108;28;20219;-72
2021/07/31 08:20:34;;;;;;;3.47;1.90;;;;;;;19.63;52.52;97530.13;5047821;28;20594;-71
2021/07/31 08:23:02;;;;;;;3.10;1.97;;;;;;;19.50;52.74;97533.84;5056122;28;20206;-71
2021/07/31 08:25:30;;;;;;;2.67;1.70;;;;;;;19.49;53.00;97537.59;5051845;28;20207;-72
2021/07/31 08:27:59;;;;;;;4.37;2.30;;;;;;;19.74;51.54;97536.53;5055338;28;20230;-73
2021/07/31 08:30:27;;;;;;;2.53;1.73;;;;;;;19.64;51.96;97527.22;5048461;28;20386;-70
2021/07/31 08:32:56;;;;;;;1.83;1.50;;;;;;;20.08;51.18;97526.00;5057400;28;20285;-72
2021/07/31 08:35:24;;;;;;;4.13;1.90;;;;;;;20.18;51.76;97530.78;5050311;28;20651;-70
2021/07/31 08:37:52;;;;;;;6.43;1.70;;;;;;;20.36;51.72;97532.50;5054966;28;20234;-71
2021/07/31 08:40:21;;;;;;;1.27;1.17;;;;;;;20.38;50.16;97520.44;5054809;28;20203;-70
2021/07/31 08:42:49;;;;;;;1.60;1.50;;;;;;;20.54;50.41;97526.94;5050440;28;20211;-71
2021/07/31 08:45:17;;;;;;;4.60;1.83;;;;;;;20.60;49.58;97530.53;5052698;28;20198;-71
2021/07/31 08:47:46;;;;;;;2.23;2.03;;;;;;;20.53;48.89;97524.50;5051868;28;20223;-70
2021/07/31 08:50:17;;;;;;;6.97;1.43;;;;;;;20.63;47.57;97513.91;5051692;28;20203;-72
2021/07/31 08:52:48;;;;;;;4.07;2.27;;;;;;;20.34;48.24;97526.53;5055906;28;20203;-70
2021/07/31 08:55:16;;;;;;;5.27;1.80;;;;;;;20.44;48.88;97523.22;5059868;28;20426;-71
2021/07/31 08:57:44;;;;;;;2.97;1.80;;;;;;;20.48;48.54;97532.47;5051308;28;20613;-72
2021/07/31 09:00:13;;;;;;;3.23;1.73;;;;;;;20.26;47.35;97519.66;5051524;28;20212;-71
2021/07/31 09:02:43;;;;;;;3.40;1.30;;;;;;;20.44;47.60;97515.13;5051691;28;20293;-71
2021/07/31 09:05:12;;;;;;;2.17;2.00;;;;;;;20.13;48.80;97525.31;5054396;28;20237;-71
2021/07/31 09:07:43;;;;;;;2.10;1.50;;;;;;;20.05;48.44;97523.81;5052590;28;21108;-70
2021/07/31 09:10:24;;;;;;;2.03;1.50;;;;;;;20.29;48.41;97523.75;5056203;28;20578;-71
2021/07/31 09:12:53;;;;;;;1.90;1.57;;;;;;;20.48;48.52;97525.19;5054395;28;20201;-72
2021/07/31 09:15:32;;;;;;;2.90;1.50;;;;;;;20.46;48.79;97519.25;5047934;28;20276;-72
2021/07/31 09:18:21;;;;;;;3.30;1.50;;;;;;;20.52;48.01;97525.53;5055909;28;20382;-74
2021/07/31 09:21:09;;;;;;;2.13;1.93;;;;;;;20.41;47.94;97521.84;5057089;28;20222;-73
2021/07/31 09:23:46;;;;;;;2.03;1.80;;;;;;;20.27;48.84;97515.91;5054971;28;20203;-72
2021/07/31 09:26:16;;;;;;;2.97;1.60;;;;;;;20.68;46.24;97521.28;5055719;28;20310;-73
2021/07/31 09:28:45;;;;;;;2.70;1.73;;;;;;;20.51;46.70;97522.03;5057104;28;20242;-73
2021/07/31 09:31:17;;;;;;;2.03;1.40;;;;;;;20.29;47.52;97510.31;5053190;28;20312;-74
2021/07/31 09:33:47;;;;;;;4.67;1.40;;;;;;;20.39;48.83;97515.88;5048725;28;20287;-71
2021/07/31 09:36:16;;;;;;;5.17;1.70;;;;;;;20.46;48.33;97521.13;5050806;28;20513;-72
2021/07/31 09:38:47;;;;;;;5.73;1.90;;;;;;;20.70;47.19;97513.75;5052673;28;20226;-74
2021/07/31 09:41:32;;;;;;;6.47;2.07;;;;;;;20.89;46.24;97524.34;5050576;28;20223;-73
2021/07/31 09:44:12;;;;;;;4.27;2.30;;;;;;;20.61;47.72;97521.41;5049940;28;20192;-72
2021/07/31 09:46:45;;;;;;;5.10;1.70;;;;;;;20.69;48.05;97517.53;5051725;28;21266;-74
2021/07/31 09:49:14;;;;;;;6.33;1.93;;;;;;;20.92;47.28;97510.38;5055891;28;20206;-71
2021/07/31 09:51:43;;;;;;;3.10;1.70;;;;;;;21.09;47.27;97505.84;5053528;28;20222;-71
2021/07/31 09:54:13;;;;;;;5.17;1.83;;;;;;;21.43;47.02;97521.19;5059202;28;20254;-71
2021/07/31 09:56:44;;;;;;;3.80;1.70;;;;;;;21.38;45.54;97519.22;5049543;28;20559;-70
2021/07/31 09:59:13;;;;;;;1.93;1.50;;;;;;;21.46;46.29;97509.09;5056621;28;20208;-72
2021/07/31 10:01:46;;;;;;;3.60;1.73;;;;;;;21.24;45.88;97518.75;5054822;28;20341;-70
2021/07/31 10:04:16;;;;;;;1.57;1.47;;;;;;;21.47;45.72;97502.66;5054990;28;20202;-71
2021/07/31 10:06:44;;;;;;;4.27;1.87;;;;;;;21.77;45.87;97520.34;5061374;28;20235;-72
2021/07/31 10:09:14;;;;;;;4.97;1.83;;;;;;;21.50;44.72;97524.53;5060471;28;20218;-70
2021/07/31 10:11:44;;;;;;;3.30;1.70;;;;;;;21.18;45.87;97514.31;5061008;28;20203;-72
2021/07/31 10:14:13;;;;;;;4.20;2.23;;;;;;;21.03;46.69;97520.31;5048941;28;20813;-71
2021/07/31 10:16:47;;;;;;;2.00;1.80;;;;;;;21.46;45.13;97506.41;5056511;28;20227;-70
2021/07/31 10:19:16;;;;;;;6.43;2.07;;;;;;;21.85;43.89;97528.03;5054986;28;20563;-72
2021/07/31 10:21:49;;;;;;;3.47;1.47;;;;;;;22.04;43.41;97514.22;5052887;28;20210;-72
2021/07/31 10:24:18;;;;;;;3.20;1.80;;;;;;;22.11;42.81;97525.66;5056430;28;20214;-72
2021/07/31 10:27:15;;;;;;;1.97;1.83;;;;;;;21.78;43.94;97532.75;5057176;28;20250;-70
2021/07/31 10:29:45;;;;;;;3.00;1.60;;;;;;;21.93;44.46;97521.38;5051710;28;20679;-72
2021/07/31 10:32:46;;;;;;;2.20;1.83;;;;;;;21.58;44.21;97527.84;5052447;28;20292;-72
2021/07/31 10:35:34;;;;;;;2.40;1.90;;;;;;;21.65;43.94;97515.88;4985521;28;20225;-73
2021/07/31 10:38:07;;;;;;;3.77;1.93;;;;;;;21.65;44.10;97521.28;4988997;28;20229;-71
2021/07/31 10:40:57;;;;;;;2.13;1.70;;;;;;;21.85;42.88;97519.94;5030006;28;20248;-72
2021/07/31 10:43:27;;;;;;;6.33;1.60;;;;;;;22.13;42.83;97523.50;5057965;28;20215;-73
2021/07/31 10:46:25;;;;;;;1.73;1.60;;;;;;;22.17;42.31;97524.66;5054064;28;20223;-73
2021/07/31 10:48:53;;;;;;;1.40;1.30;;;;;;;22.46;40.98;97516.38;5009184;28;20423;-71
2021/07/31 10:51:41;;;;;;;2.97;1.30;;;;;;;21.93;42.12;97524.91;5057531;28;20207;-73
2021/07/31 10:54:09;;;;;;;4.33;1.87;;;;;;;22.78;41.43;97512.94;5057481;28;20230;-71
2021/07/31 10:56:58;;;;;;;2.13;1.90;;;;;;;23.55;38.99;97520.91;5056779;28;20242;-72
2021/07/31 10:59:26;;;;;;;2.47;1.97;;;;;;;23.51;39.19;97518.97;5048058;28;20753;-73
2021/07/31 11:02:31;;;;;;;5.13;2.00;;;;;;;23.51;38.40;97521.66;5051030;28;20218;-73
2021/07/31 11:05:00;;;;;;;2.73;1.40;;;;;;;23.77;37.74;97509.09;5056369;28;20291;-73
2021/07/31 11:07:29;;;;;;;3.63;1.90;;;;;;;22.78;39.85;97512.94;5052441;28;20255;-73
2021/07/31 11:10:42;;;;;;;2.30;1.40;;;;;;;22.51;40.58;97508.31;5053121;28;20207;-73
2021/07/31 11:13:13;;;;;;;5.23;1.90;;;;;;;23.62;39.32;97506.31;5053235;28;20325;-75
2021/07/31 11:16:17;;;;;;;2.97;1.63;;;;;;;24.39;37.64;97514.00;5054058;28;20673;-73
2021/07/31 11:18:48;;;;;;;1.37;1.27;;;;;;;24.46;36.79;97524.59;5054591;28;20205;-72
2021/07/31 11:21:18;;;;;;;3.50;1.40;;;;;;;24.16;36.78;97510.69;5050309;28;20207;-73
2021/07/31 11:23:47;;;;;;;1.90;1.47;;;;;;;23.79;37.17;97506.16;5052506;28;20210;-71
2021/07/31 11:26:37;;;;;;;4.17;1.27;;;;;;;24.49;36.14;97505.94;5052809;28;20218;-72
2021/07/31 11:29:10;;;;;;;1.90;1.40;;;;;;;23.09;37.86;97505.09;5055288;28;20215;-73
2021/07/31 11:31:39;;;;;;;2.83;1.47;;;;;;;23.04;39.82;97517.75;5054208;28;20206;-74
2021/07/31 11:34:09;;;;;;;2.87;1.37;;;;;;;23.60;38.23;97505.78;5054730;28;20206;-71
2021/07/31 11:36:38;;;;;;;2.73;1.90;;;;;;;23.62;37.99;97509.81;5055656;28;20226;-71
2021/07/31 11:39:07;;;;;;;2.07;1.87;;;;;;;22.80;39.94;97513.50;5054144;28;20218;-73
2021/07/31 11:41:40;;;;;;;1.77;1.47;;;;;;;22.26;39.67;97508.81;5052086;28;20666;-73
2021/07/31 11:44:10;;;;;;;2.40;1.47;;;;;;;22.72;39.78;97513.94;5054735;28;20210;-72
2021/07/31 11:46:41;;;;;;;3.93;1.90;;;;;;;22.95;38.98;97514.72;5059143;28;20221;-71